sensor_id;sensor_type;location;lat;lon;timestamp;P1;durP1;ratioP1;P2;durP2;ratioP2
28523;SDS011;15734;50.904;6.922;2023-06-26T00:01:14;31.77;;;8.20;;
28523;SDS011;15734;50.904;6.922;2023-06-26T00:03:40;8.68;;;6.25;;
28523;SDS011;15734;50.904;6.922;2023-06-26T00:06:05;10.18;;;7.22;;
28523;SDS011;15734;50.904;6.922;2023-06-26T00:08:31;10.60;;;6.13;;
28523;SDS011;15734;50.904;6.922;2023-06-26T00:10:56;11.43;;;6.03;;
28523;SDS011;15734;50.904;6.922;2023-06-26T00:13:22;11.07;;;6.63;;
28523;SDS011;15734;50.904;6.922;2023-06-26T00:15:49;10.15;;;6.63;;
28523;SDS011;15734;50.904;6.922;2023-06-26T00:18:15;9.20;;;6.53;;
28523;SDS011;15734;50.904;6.922;2023-06-26T00:20:41;10.57;;;6.97;;
28523;SDS011;15734;50.904;6.922;2023-06-26T00:23:06;11.13;;;6.43;;
28523;SDS011;15734;50.904;6.922;2023-06-26T00:25:33;9.02;;;6.15;;
28523;SDS011;15734;50.904;6.922;2023-06-26T00:27:59;11.50;;;6.20;;
28523;SDS011;15734;50.904;6.922;2023-06-26T00:30:24;12.88;;;7.13;;
28523;SDS011;15734;50.904;6.922;2023-06-26T00:32:50;12.10;;;7.57;;
28523;SDS011;15734;50.904;6.922;2023-06-26T00:35:16;13.07;;;7.00;;
28523;SDS011;15734;50.904;6.922;2023-06-26T00:37:41;10.75;;;7.50;;
28523;SDS011;15734;50.904;6.922;2023-06-26T00:40:07;15.07;;;7.88;;
28523;SDS011;15734;50.904;6.922;2023-06-26T00:42:34;9.32;;;6.50;;
28523;SDS011;15734;50.904;6.922;2023-06-26T00:44:59;12.60;;;7.15;;
28523;SDS011;15734;50.904;6.922;2023-06-26T00:47:25;13.23;;;6.72;;
28523;SDS011;15734;50.904;6.922;2023-06-26T00:49:52;15.73;;;7.75;;
28523;SDS011;15734;50.904;6.922;2023-06-26T00:52:18;11.27;;;6.35;;
28523;SDS011;15734;50.904;6.922;2023-06-26T00:54:43;11.95;;;7.55;;
28523;SDS011;15734;50.904;6.922;2023-06-26T00:57:09;16.35;;;8.07;;
28523;SDS011;15734;50.904;6.922;2023-06-26T00:59:35;10.68;;;6.75;;
28523;SDS011;15734;50.904;6.922;2023-06-26T01:02:01;14.70;;;7.07;;
28523;SDS011;15734;50.904;6.922;2023-06-26T01:04:26;10.88;;;7.40;;
28523;SDS011;15734;50.904;6.922;2023-06-26T01:06:52;9.68;;;7.00;;
28523;SDS011;15734;50.904;6.922;2023-06-26T01:09:19;12.68;;;7.18;;
28523;SDS011;15734;50.904;6.922;2023-06-26T01:11:45;12.02;;;7.22;;
28523;SDS011;15734;50.904;6.922;2023-06-26T01:14:12;13.43;;;8.23;;
28523;SDS011;15734;50.904;6.922;2023-06-26T01:16:38;11.30;;;7.25;;
28523;SDS011;15734;50.904;6.922;2023-06-26T01:19:13;10.55;;;7.18;;
28523;SDS011;15734;50.904;6.922;2023-06-26T01:24:17;10.65;;;7.07;;
28523;SDS011;15734;50.904;6.922;2023-06-26T01:26:47;13.07;;;7.38;;
28523;SDS011;15734;50.904;6.922;2023-06-26T01:29:15;14.30;;;7.40;;
28523;SDS011;15734;50.904;6.922;2023-06-26T01:31:42;14.10;;;8.27;;
28523;SDS011;15734;50.904;6.922;2023-06-26T01:34:11;15.82;;;7.40;;
28523;SDS011;15734;50.904;6.922;2023-06-26T01:36:37;12.73;;;7.25;;
28523;SDS011;15734;50.904;6.922;2023-06-26T01:39:03;12.75;;;8.30;;
28523;SDS011;15734;50.904;6.922;2023-06-26T01:41:29;11.18;;;7.43;;
28523;SDS011;15734;50.904;6.922;2023-06-26T01:49:25;11.40;;;7.78;;
28523;SDS011;15734;50.904;6.922;2023-06-26T01:55:07;11.98;;;8.18;;
28523;SDS011;15734;50.904;6.922;2023-06-26T01:57:42;12.85;;;7.43;;
28523;SDS011;15734;50.904;6.922;2023-06-26T02:00:10;10.95;;;7.53;;
28523;SDS011;15734;50.904;6.922;2023-06-26T02:02:37;13.13;;;7.97;;
28523;SDS011;15734;50.904;6.922;2023-06-26T02:05:05;12.15;;;7.93;;
28523;SDS011;15734;50.904;6.922;2023-06-26T02:07:31;16.35;;;8.32;;
28523;SDS011;15734;50.904;6.922;2023-06-26T02:09:56;14.48;;;8.05;;
28523;SDS011;15734;50.904;6.922;2023-06-26T02:12:22;13.27;;;8.43;;
28523;SDS011;15734;50.904;6.922;2023-06-26T02:14:47;11.93;;;7.55;;
28523;SDS011;15734;50.904;6.922;2023-06-26T02:17:14;13.10;;;8.38;;
28523;SDS011;15734;50.904;6.922;2023-06-26T02:19:40;12.73;;;7.88;;
28523;SDS011;15734;50.904;6.922;2023-06-26T02:22:12;12.35;;;7.78;;
28523;SDS011;15734;50.904;6.922;2023-06-26T02:24:41;13.82;;;8.13;;
28523;SDS011;15734;50.904;6.922;2023-06-26T02:27:07;16.08;;;7.80;;
28523;SDS011;15734;50.904;6.922;2023-06-26T02:29:33;14.30;;;8.57;;
28523;SDS011;15734;50.904;6.922;2023-06-26T02:31:59;12.75;;;7.95;;
28523;SDS011;15734;50.904;6.922;2023-06-26T02:34:24;11.35;;;7.95;;
28523;SDS011;15734;50.904;6.922;2023-06-26T02:36:50;13.68;;;8.82;;
28523;SDS011;15734;50.904;6.922;2023-06-26T02:39:15;11.80;;;7.85;;
28523;SDS011;15734;50.904;6.922;2023-06-26T02:41:41;13.38;;;8.50;;
28523;SDS011;15734;50.904;6.922;2023-06-26T02:44:08;13.18;;;8.27;;
28523;SDS011;15734;50.904;6.922;2023-06-26T02:46:35;15.90;;;8.63;;
28523;SDS011;15734;50.904;6.922;2023-06-26T02:49:01;11.52;;;7.90;;
28523;SDS011;15734;50.904;6.922;2023-06-26T02:51:26;12.82;;;7.90;;
28523;SDS011;15734;50.904;6.922;2023-06-26T02:53:52;11.73;;;7.90;;
28523;SDS011;15734;50.904;6.922;2023-06-26T02:56:17;13.98;;;8.57;;
28523;SDS011;15734;50.904;6.922;2023-06-26T02:58:43;13.02;;;8.05;;
28523;SDS011;15734;50.904;6.922;2023-06-26T03:01:08;14.05;;;8.55;;
28523;SDS011;15734;50.904;6.922;2023-06-26T03:03:34;12.18;;;8.57;;
28523;SDS011;15734;50.904;6.922;2023-06-26T03:06:05;14.57;;;7.70;;
28523;SDS011;15734;50.904;6.922;2023-06-26T03:08:31;12.98;;;8.38;;
28523;SDS011;15734;50.904;6.922;2023-06-26T03:10:57;13.07;;;8.85;;
28523;SDS011;15734;50.904;6.922;2023-06-26T03:13:22;11.80;;;8.40;;
28523;SDS011;15734;50.904;6.922;2023-06-26T03:15:48;18.58;;;8.27;;
28523;SDS011;15734;50.904;6.922;2023-06-26T03:18:13;15.90;;;8.27;;
28523;SDS011;15734;50.904;6.922;2023-06-26T03:20:39;14.45;;;7.88;;
28523;SDS011;15734;50.904;6.922;2023-06-26T03:23:04;14.13;;;8.18;;
28523;SDS011;15734;50.904;6.922;2023-06-26T03:25:30;13.55;;;8.02;;
28523;SDS011;15734;50.904;6.922;2023-06-26T03:27:56;10.10;;;7.13;;
28523;SDS011;15734;50.904;6.922;2023-06-26T03:30:21;12.93;;;7.82;;
28523;SDS011;15734;50.904;6.922;2023-06-26T03:32:47;11.38;;;7.30;;
28523;SDS011;15734;50.904;6.922;2023-06-26T03:35:12;12.82;;;7.40;;
28523;SDS011;15734;50.904;6.922;2023-06-26T03:37:38;11.82;;;6.70;;
28523;SDS011;15734;50.904;6.922;2023-06-26T03:40:03;12.45;;;6.75;;
28523;SDS011;15734;50.904;6.922;2023-06-26T03:42:29;9.55;;;6.55;;
28523;SDS011;15734;50.904;6.922;2023-06-26T03:44:55;16.33;;;6.65;;
28523;SDS011;15734;50.904;6.922;2023-06-26T03:47:20;12.13;;;6.28;;
28523;SDS011;15734;50.904;6.922;2023-06-26T03:49:46;13.88;;;6.63;;
28523;SDS011;15734;50.904;6.922;2023-06-26T03:52:12;17.88;;;5.95;;
28523;SDS011;15734;50.904;6.922;2023-06-26T03:54:38;10.90;;;6.07;;
28523;SDS011;15734;50.904;6.922;2023-06-26T03:57:04;11.45;;;5.47;;
28523;SDS011;15734;50.904;6.922;2023-06-26T03:59:29;10.23;;;5.38;;
28523;SDS011;15734;50.904;6.922;2023-06-26T04:01:55;13.07;;;5.43;;
28523;SDS011;15734;50.904;6.922;2023-06-26T04:04:21;12.35;;;6.07;;
28523;SDS011;15734;50.904;6.922;2023-06-26T04:06:46;11.95;;;6.15;;
28523;SDS011;15734;50.904;6.922;2023-06-26T04:09:12;10.90;;;6.18;;
28523;SDS011;15734;50.904;6.922;2023-06-26T04:11:38;9.38;;;6.35;;
28523;SDS011;15734;50.904;6.922;2023-06-26T04:14:04;8.75;;;5.65;;
28523;SDS011;15734;50.904;6.922;2023-06-26T04:16:29;12.18;;;6.53;;
28523;SDS011;15734;50.904;6.922;2023-06-26T04:18:55;11.18;;;5.95;;
28523;SDS011;15734;50.904;6.922;2023-06-26T04:21:21;8.65;;;5.65;;
28523;SDS011;15734;50.904;6.922;2023-06-26T04:23:49;8.65;;;5.80;;
28523;SDS011;15734;50.904;6.922;2023-06-26T04:26:15;9.70;;;5.68;;
28523;SDS011;15734;50.904;6.922;2023-06-26T04:28:41;9.30;;;5.80;;
28523;SDS011;15734;50.904;6.922;2023-06-26T04:31:07;13.48;;;6.70;;
28523;SDS011;15734;50.904;6.922;2023-06-26T04:33:34;15.73;;;6.05;;
28523;SDS011;15734;50.904;6.922;2023-06-26T04:36:01;9.55;;;5.55;;
28523;SDS011;15734;50.904;6.922;2023-06-26T04:38:28;9.68;;;5.68;;
28523;SDS011;15734;50.904;6.922;2023-06-26T04:40:54;11.40;;;6.32;;
28523;SDS011;15734;50.904;6.922;2023-06-26T04:43:20;10.02;;;5.95;;
28523;SDS011;15734;50.904;6.922;2023-06-26T04:45:45;14.63;;;5.85;;
28523;SDS011;15734;50.904;6.922;2023-06-26T04:48:11;9.43;;;5.47;;
28523;SDS011;15734;50.904;6.922;2023-06-26T04:50:37;10.52;;;6.00;;
28523;SDS011;15734;50.904;6.922;2023-06-26T04:53:02;13.13;;;5.88;;
28523;SDS011;15734;50.904;6.922;2023-06-26T04:55:28;7.65;;;5.03;;
28523;SDS011;15734;50.904;6.922;2023-06-26T04:57:53;14.63;;;5.07;;
28523;SDS011;15734;50.904;6.922;2023-06-26T05:00:19;12.77;;;5.25;;
28523;SDS011;15734;50.904;6.922;2023-06-26T05:02:44;10.85;;;4.38;;
28523;SDS011;15734;50.904;6.922;2023-06-26T05:05:10;8.27;;;4.57;;
28523;SDS011;15734;50.904;6.922;2023-06-26T05:07:36;8.63;;;4.60;;
28523;SDS011;15734;50.904;6.922;2023-06-26T05:10:03;10.00;;;5.47;;
28523;SDS011;15734;50.904;6.922;2023-06-26T05:12:28;8.82;;;4.90;;
28523;SDS011;15734;50.904;6.922;2023-06-26T05:14:54;15.82;;;5.85;;
28523;SDS011;15734;50.904;6.922;2023-06-26T05:17:19;9.27;;;5.50;;
28523;SDS011;15734;50.904;6.922;2023-06-26T05:19:45;12.07;;;5.28;;
28523;SDS011;15734;50.904;6.922;2023-06-26T05:22:12;11.02;;;5.22;;
28523;SDS011;15734;50.904;6.922;2023-06-26T05:24:38;7.90;;;4.63;;
28523;SDS011;15734;50.904;6.922;2023-06-26T05:27:05;10.40;;;4.95;;
28523;SDS011;15734;50.904;6.922;2023-06-26T05:29:31;8.70;;;4.70;;
28523;SDS011;15734;50.904;6.922;2023-06-26T05:31:57;9.93;;;4.63;;
28523;SDS011;15734;50.904;6.922;2023-06-26T05:34:23;6.90;;;4.78;;
28523;SDS011;15734;50.904;6.922;2023-06-26T05:36:52;10.55;;;4.65;;
28523;SDS011;15734;50.904;6.922;2023-06-26T05:39:22;14.20;;;4.68;;
28523;SDS011;15734;50.904;6.922;2023-06-26T05:41:48;8.40;;;4.55;;
28523;SDS011;15734;50.904;6.922;2023-06-26T05:44:14;12.85;;;4.93;;
28523;SDS011;15734;50.904;6.922;2023-06-26T05:46:39;10.18;;;4.97;;
28523;SDS011;15734;50.904;6.922;2023-06-26T05:49:05;7.40;;;4.88;;
28523;SDS011;15734;50.904;6.922;2023-06-26T05:51:30;10.38;;;4.20;;
28523;SDS011;15734;50.904;6.922;2023-06-26T05:53:56;13.77;;;4.55;;
28523;SDS011;15734;50.904;6.922;2023-06-26T05:56:22;7.78;;;4.40;;
28523;SDS011;15734;50.904;6.922;2023-06-26T05:58:48;13.25;;;4.88;;
28523;SDS011;15734;50.904;6.922;2023-06-26T06:01:14;9.63;;;4.55;;
28523;SDS011;15734;50.904;6.922;2023-06-26T06:03:40;7.63;;;4.00;;
28523;SDS011;15734;50.904;6.922;2023-06-26T06:06:06;10.98;;;4.72;;
28523;SDS011;15734;50.904;6.922;2023-06-26T06:08:31;10.15;;;4.80;;
28523;SDS011;15734;50.904;6.922;2023-06-26T06:10:57;9.20;;;4.75;;
28523;SDS011;15734;50.904;6.922;2023-06-26T06:13:24;9.68;;;4.63;;
28523;SDS011;15734;50.904;6.922;2023-06-26T06:15:49;11.70;;;4.47;;
28523;SDS011;15734;50.904;6.922;2023-06-26T06:18:15;6.95;;;3.90;;
28523;SDS011;15734;50.904;6.922;2023-06-26T06:20:40;11.70;;;4.72;;
28523;SDS011;15734;50.904;6.922;2023-06-26T06:23:06;11.20;;;5.22;;
28523;SDS011;15734;50.904;6.922;2023-06-26T06:25:32;14.88;;;4.50;;
28523;SDS011;15734;50.904;6.922;2023-06-26T06:27:57;15.55;;;4.68;;
28523;SDS011;15734;50.904;6.922;2023-06-26T06:30:23;14.80;;;4.53;;
28523;SDS011;15734;50.904;6.922;2023-06-26T06:32:48;8.32;;;4.43;;
28523;SDS011;15734;50.904;6.922;2023-06-26T06:35:17;9.52;;;4.32;;
28523;SDS011;15734;50.904;6.922;2023-06-26T06:37:46;11.13;;;4.50;;
28523;SDS011;15734;50.904;6.922;2023-06-26T06:40:12;14.45;;;4.30;;
28523;SDS011;15734;50.904;6.922;2023-06-26T06:42:38;7.93;;;3.92;;
28523;SDS011;15734;50.904;6.922;2023-06-26T06:45:04;15.60;;;4.82;;
28523;SDS011;15734;50.904;6.922;2023-06-26T06:47:30;9.63;;;4.05;;
28523;SDS011;15734;50.904;6.922;2023-06-26T06:49:56;14.43;;;5.00;;
28523;SDS011;15734;50.904;6.922;2023-06-26T06:52:22;17.95;;;5.00;;
28523;SDS011;15734;50.904;6.922;2023-06-26T06:54:52;12.75;;;4.20;;
28523;SDS011;15734;50.904;6.922;2023-06-26T06:57:19;9.77;;;3.88;;
28523;SDS011;15734;50.904;6.922;2023-06-26T06:59:46;14.05;;;4.50;;
28523;SDS011;15734;50.904;6.922;2023-06-26T07:02:12;11.05;;;4.68;;
28523;SDS011;15734;50.904;6.922;2023-06-26T07:04:38;14.20;;;4.57;;
28523;SDS011;15734;50.904;6.922;2023-06-26T07:07:04;16.80;;;4.97;;
28523;SDS011;15734;50.904;6.922;2023-06-26T07:09:29;12.98;;;4.47;;
28523;SDS011;15734;50.904;6.922;2023-06-26T07:11:55;12.02;;;3.85;;
28523;SDS011;15734;50.904;6.922;2023-06-26T07:14:20;13.07;;;4.85;;
28523;SDS011;15734;50.904;6.922;2023-06-26T07:16:46;8.65;;;4.18;;
28523;SDS011;15734;50.904;6.922;2023-06-26T07:19:11;11.30;;;5.10;;
28523;SDS011;15734;50.904;6.922;2023-06-26T07:21:37;8.75;;;4.25;;
28523;SDS011;15734;50.904;6.922;2023-06-26T07:24:02;13.82;;;6.13;;
28523;SDS011;15734;50.904;6.922;2023-06-26T07:26:28;11.43;;;4.53;;
28523;SDS011;15734;50.904;6.922;2023-06-26T07:28:53;19.92;;;5.55;;
28523;SDS011;15734;50.904;6.922;2023-06-26T07:31:21;16.63;;;4.85;;
28523;SDS011;15734;50.904;6.922;2023-06-26T07:33:47;14.52;;;5.15;;
28523;SDS011;15734;50.904;6.922;2023-06-26T07:36:12;11.55;;;5.18;;
28523;SDS011;15734;50.904;6.922;2023-06-26T07:38:38;12.75;;;4.82;;
28523;SDS011;15734;50.904;6.922;2023-06-26T07:41:03;11.68;;;4.35;;
28523;SDS011;15734;50.904;6.922;2023-06-26T07:43:29;14.77;;;5.97;;
28523;SDS011;15734;50.904;6.922;2023-06-26T07:45:55;11.07;;;4.95;;
28523;SDS011;15734;50.904;6.922;2023-06-26T07:48:23;14.02;;;5.40;;
28523;SDS011;15734;50.904;6.922;2023-06-26T07:50:49;12.18;;;5.68;;
28523;SDS011;15734;50.904;6.922;2023-06-26T07:53:15;23.83;;;5.05;;
28523;SDS011;15734;50.904;6.922;2023-06-26T07:55:40;13.55;;;5.32;;
28523;SDS011;15734;50.904;6.922;2023-06-26T07:58:06;13.93;;;5.65;;
28523;SDS011;15734;50.904;6.922;2023-06-26T08:00:32;12.00;;;5.60;;
28523;SDS011;15734;50.904;6.922;2023-06-26T08:02:57;16.33;;;5.35;;
28523;SDS011;15734;50.904;6.922;2023-06-26T08:05:23;14.00;;;5.32;;
28523;SDS011;15734;50.904;6.922;2023-06-26T08:07:49;12.00;;;4.45;;
28523;SDS011;15734;50.904;6.922;2023-06-26T08:10:14;16.10;;;5.80;;
28523;SDS011;15734;50.904;6.922;2023-06-26T08:12:40;13.77;;;5.18;;
28523;SDS011;15734;50.904;6.922;2023-06-26T08:15:07;18.33;;;4.90;;
28523;SDS011;15734;50.904;6.922;2023-06-26T08:17:33;13.30;;;4.63;;
28523;SDS011;15734;50.904;6.922;2023-06-26T08:20:00;10.20;;;5.18;;
28523;SDS011;15734;50.904;6.922;2023-06-26T08:22:25;11.38;;;4.95;;
28523;SDS011;15734;50.904;6.922;2023-06-26T08:24:51;19.10;;;5.72;;
28523;SDS011;15734;50.904;6.922;2023-06-26T08:27:16;22.50;;;5.40;;
28523;SDS011;15734;50.904;6.922;2023-06-26T08:29:42;12.10;;;5.45;;
28523;SDS011;15734;50.904;6.922;2023-06-26T08:32:07;10.80;;;4.72;;
28523;SDS011;15734;50.904;6.922;2023-06-26T08:34:33;13.15;;;5.38;;
28523;SDS011;15734;50.904;6.922;2023-06-26T08:36:58;13.23;;;4.95;;
28523;SDS011;15734;50.904;6.922;2023-06-26T08:39:24;13.10;;;4.88;;
28523;SDS011;15734;50.904;6.922;2023-06-26T08:41:49;13.68;;;4.93;;
28523;SDS011;15734;50.904;6.922;2023-06-26T08:44:16;11.55;;;4.18;;
28523;SDS011;15734;50.904;6.922;2023-06-26T08:46:41;17.70;;;5.10;;
28523;SDS011;15734;50.904;6.922;2023-06-26T08:49:29;11.40;;;4.80;;
28523;SDS011;15734;50.904;6.922;2023-06-26T08:52:13;15.60;;;4.68;;
28523;SDS011;15734;50.904;6.922;2023-06-26T08:54:45;12.30;;;4.05;;
28523;SDS011;15734;50.904;6.922;2023-06-26T08:57:14;14.93;;;4.32;;
28523;SDS011;15734;50.904;6.922;2023-06-26T08:59:43;14.85;;;5.10;;
28523;SDS011;15734;50.904;6.922;2023-06-26T09:02:10;11.55;;;3.67;;
28523;SDS011;15734;50.904;6.922;2023-06-26T09:04:35;6.80;;;3.83;;
28523;SDS011;15734;50.904;6.922;2023-06-26T09:07:01;10.80;;;4.50;;
28523;SDS011;15734;50.904;6.922;2023-06-26T09:09:27;12.50;;;4.28;;
28523;SDS011;15734;50.904;6.922;2023-06-26T09:11:53;13.35;;;4.20;;
28523;SDS011;15734;50.904;6.922;2023-06-26T09:14:20;16.20;;;4.15;;
28523;SDS011;15734;50.904;6.922;2023-06-26T09:16:46;8.93;;;4.03;;
28523;SDS011;15734;50.904;6.922;2023-06-26T09:19:12;13.70;;;3.70;;
28523;SDS011;15734;50.904;6.922;2023-06-26T09:21:38;11.25;;;4.50;;
28523;SDS011;15734;50.904;6.922;2023-06-26T09:24:05;15.38;;;4.30;;
28523;SDS011;15734;50.904;6.922;2023-06-26T09:26:34;10.10;;;3.65;;
28523;SDS011;15734;50.904;6.922;2023-06-26T09:29:04;7.80;;;3.45;;
28523;SDS011;15734;50.904;6.922;2023-06-26T09:31:30;11.60;;;3.92;;
28523;SDS011;15734;50.904;6.922;2023-06-26T09:33:58;12.10;;;4.43;;
28523;SDS011;15734;50.904;6.922;2023-06-26T09:36:26;8.40;;;3.67;;
28523;SDS011;15734;50.904;6.922;2023-06-26T09:38:54;14.10;;;3.65;;
28523;SDS011;15734;50.904;6.922;2023-06-26T09:41:20;17.58;;;3.47;;
28523;SDS011;15734;50.904;6.922;2023-06-26T09:43:49;8.95;;;3.13;;
28523;SDS011;15734;50.904;6.922;2023-06-26T09:46:24;16.27;;;4.18;;
28523;SDS011;15734;50.904;6.922;2023-06-26T09:51:48;12.98;;;3.50;;
28523;SDS011;15734;50.904;6.922;2023-06-26T09:54:15;10.95;;;3.42;;
28523;SDS011;15734;50.904;6.922;2023-06-26T09:56:42;12.95;;;3.30;;
28523;SDS011;15734;50.904;6.922;2023-06-26T09:59:08;8.43;;;3.90;;
28523;SDS011;15734;50.904;6.922;2023-06-26T10:01:39;12.30;;;3.08;;
28523;SDS011;15734;50.904;6.922;2023-06-26T10:04:05;14.07;;;3.58;;
28523;SDS011;15734;50.904;6.922;2023-06-26T10:06:35;10.50;;;3.38;;
28523;SDS011;15734;50.904;6.922;2023-06-26T10:09:04;7.93;;;3.10;;
28523;SDS011;15734;50.904;6.922;2023-06-26T10:11:34;8.00;;;3.13;;
28523;SDS011;15734;50.904;6.922;2023-06-26T10:14:05;16.27;;;3.78;;
28523;SDS011;15734;50.904;6.922;2023-06-26T10:16:34;9.85;;;2.85;;
28523;SDS011;15734;50.904;6.922;2023-06-26T10:19:02;10.20;;;3.25;;
28523;SDS011;15734;50.904;6.922;2023-06-26T10:21:31;8.15;;;2.88;;
28523;SDS011;15734;50.904;6.922;2023-06-26T10:23:59;9.95;;;2.70;;
28523;SDS011;15734;50.904;6.922;2023-06-26T10:26:25;15.77;;;3.20;;
28523;SDS011;15734;50.904;6.922;2023-06-26T10:28:52;11.35;;;3.30;;
28523;SDS011;15734;50.904;6.922;2023-06-26T10:31:20;14.57;;;3.47;;
28523;SDS011;15734;50.904;6.922;2023-06-26T10:33:48;14.98;;;3.20;;
28523;SDS011;15734;50.904;6.922;2023-06-26T10:36:15;7.95;;;3.00;;
28523;SDS011;15734;50.904;6.922;2023-06-26T10:38:53;12.10;;;2.80;;
28523;SDS011;15734;50.904;6.922;2023-06-26T10:41:21;11.00;;;2.63;;
28523;SDS011;15734;50.904;6.922;2023-06-26T10:43:51;9.63;;;2.70;;
28523;SDS011;15734;50.904;6.922;2023-06-26T10:46:33;7.50;;;2.85;;
28523;SDS011;15734;50.904;6.922;2023-06-26T10:49:13;8.80;;;3.10;;
28523;SDS011;15734;50.904;6.922;2023-06-26T10:51:38;9.90;;;2.80;;
28523;SDS011;15734;50.904;6.922;2023-06-26T10:54:13;10.95;;;3.03;;
28523;SDS011;15734;50.904;6.922;2023-06-26T10:56:41;5.60;;;2.35;;
28523;SDS011;15734;50.904;6.922;2023-06-26T10:59:17;8.27;;;2.40;;
28523;SDS011;15734;50.904;6.922;2023-06-26T11:01:45;10.23;;;2.38;;
28523;SDS011;15734;50.904;6.922;2023-06-26T11:04:18;4.57;;;2.08;;
28523;SDS011;15734;50.904;6.922;2023-06-26T11:15:10;12.05;;;2.25;;
28523;SDS011;15734;50.904;6.922;2023-06-26T11:17:38;10.13;;;2.45;;
28523;SDS011;15734;50.904;6.922;2023-06-26T11:20:11;10.13;;;2.70;;
28523;SDS011;15734;50.904;6.922;2023-06-26T11:22:39;10.52;;;2.85;;
28523;SDS011;15734;50.904;6.922;2023-06-26T11:25:06;4.10;;;2.05;;
28523;SDS011;15734;50.904;6.922;2023-06-26T11:27:39;7.22;;;1.98;;
28523;SDS011;15734;50.904;6.922;2023-06-26T11:30:05;8.13;;;2.60;;
28523;SDS011;15734;50.904;6.922;2023-06-26T11:32:32;12.00;;;2.55;;
28523;SDS011;15734;50.904;6.922;2023-06-26T11:34:58;6.05;;;2.42;;
28523;SDS011;15734;50.904;6.922;2023-06-26T11:37:24;5.13;;;2.55;;
28523;SDS011;15734;50.904;6.922;2023-06-26T11:39:50;7.28;;;2.38;;
28523;SDS011;15734;50.904;6.922;2023-06-26T11:42:16;4.57;;;2.38;;
28523;SDS011;15734;50.904;6.922;2023-06-26T11:44:43;5.57;;;1.80;;
28523;SDS011;15734;50.904;6.922;2023-06-26T11:47:16;7.85;;;2.50;;
28523;SDS011;15734;50.904;6.922;2023-06-26T11:49:43;12.60;;;2.30;;
28523;SDS011;15734;50.904;6.922;2023-06-26T11:52:09;7.13;;;1.80;;
28523;SDS011;15734;50.904;6.922;2023-06-26T11:54:35;6.38;;;1.65;;
28523;SDS011;15734;50.904;6.922;2023-06-26T11:57:01;11.23;;;2.38;;
28523;SDS011;15734;50.904;6.922;2023-06-26T11:59:36;7.63;;;2.15;;
28523;SDS011;15734;50.904;6.922;2023-06-26T12:02:09;10.90;;;2.58;;
28523;SDS011;15734;50.904;6.922;2023-06-26T12:04:36;9.15;;;2.35;;
28523;SDS011;15734;50.904;6.922;2023-06-26T12:07:04;6.15;;;2.08;;
28523;SDS011;15734;50.904;6.922;2023-06-26T12:09:33;12.15;;;1.92;;
28523;SDS011;15734;50.904;6.922;2023-06-26T12:12:02;8.60;;;2.05;;
28523;SDS011;15734;50.904;6.922;2023-06-26T12:14:28;8.27;;;1.70;;
28523;SDS011;15734;50.904;6.922;2023-06-26T12:16:54;16.08;;;1.95;;
28523;SDS011;15734;50.904;6.922;2023-06-26T12:19:24;7.13;;;1.70;;
28523;SDS011;15734;50.904;6.922;2023-06-26T12:21:53;4.72;;;1.85;;
28523;SDS011;15734;50.904;6.922;2023-06-26T12:24:21;8.18;;;1.60;;
28523;SDS011;15734;50.904;6.922;2023-06-26T12:26:54;6.38;;;1.70;;
28523;SDS011;15734;50.904;6.922;2023-06-26T12:29:24;6.25;;;1.77;;
28523;SDS011;15734;50.904;6.922;2023-06-26T12:31:56;6.50;;;1.77;;
28523;SDS011;15734;50.904;6.922;2023-06-26T12:34:28;11.10;;;1.90;;
28523;SDS011;15734;50.904;6.922;2023-06-26T12:37:00;7.53;;;1.95;;
28523;SDS011;15734;50.904;6.922;2023-06-26T12:39:28;10.45;;;1.92;;
28523;SDS011;15734;50.904;6.922;2023-06-26T12:41:56;4.07;;;1.40;;
28523;SDS011;15734;50.904;6.922;2023-06-26T12:44:25;3.55;;;1.48;;
28523;SDS011;15734;50.904;6.922;2023-06-26T12:46:59;6.80;;;1.38;;
28523;SDS011;15734;50.904;6.922;2023-06-26T12:49:38;7.97;;;1.42;;
28523;SDS011;15734;50.904;6.922;2023-06-26T12:52:07;11.40;;;1.55;;
28523;SDS011;15734;50.904;6.922;2023-06-26T12:54:34;5.22;;;1.30;;
28523;SDS011;15734;50.904;6.922;2023-06-26T12:57:00;4.85;;;1.42;;
28523;SDS011;15734;50.904;6.922;2023-06-26T12:59:26;8.60;;;1.65;;
28523;SDS011;15734;50.904;6.922;2023-06-26T13:01:52;6.13;;;1.55;;
28523;SDS011;15734;50.904;6.922;2023-06-26T13:04:18;6.30;;;1.55;;
28523;SDS011;15734;50.904;6.922;2023-06-26T13:06:44;5.90;;;1.63;;
28523;SDS011;15734;50.904;6.922;2023-06-26T13:09:09;7.00;;;1.55;;
28523;SDS011;15734;50.904;6.922;2023-06-26T13:11:37;16.08;;;2.85;;
28523;SDS011;15734;50.904;6.922;2023-06-26T13:14:02;6.05;;;1.23;;
28523;SDS011;15734;50.904;6.922;2023-06-26T13:16:28;12.65;;;1.60;;
28523;SDS011;15734;50.904;6.922;2023-06-26T13:18:54;9.35;;;1.35;;
28523;SDS011;15734;50.904;6.922;2023-06-26T13:21:20;5.07;;;1.08;;
28523;SDS011;15734;50.904;6.922;2023-06-26T13:23:46;5.88;;;1.13;;
28523;SDS011;15734;50.904;6.922;2023-06-26T13:26:12;5.35;;;1.23;;
28523;SDS011;15734;50.904;6.922;2023-06-26T13:28:38;9.63;;;1.25;;
28523;SDS011;15734;50.904;6.922;2023-06-26T13:31:04;2.95;;;0.95;;
28523;SDS011;15734;50.904;6.922;2023-06-26T13:33:30;5.95;;;1.13;;
28523;SDS011;15734;50.904;6.922;2023-06-26T13:35:56;8.70;;;1.25;;
28523;SDS011;15734;50.904;6.922;2023-06-26T13:38:22;4.35;;;1.10;;
28523;SDS011;15734;50.904;6.922;2023-06-26T13:40:51;10.25;;;1.70;;
28523;SDS011;15734;50.904;6.922;2023-06-26T13:43:17;13.48;;;1.42;;
28523;SDS011;15734;50.904;6.922;2023-06-26T13:45:43;4.32;;;0.98;;
28523;SDS011;15734;50.904;6.922;2023-06-26T13:48:09;7.20;;;1.35;;
28523;SDS011;15734;50.904;6.922;2023-06-26T13:50:35;7.63;;;1.10;;
28523;SDS011;15734;50.904;6.922;2023-06-26T13:53:00;6.70;;;1.40;;
28523;SDS011;15734;50.904;6.922;2023-06-26T13:55:27;2.38;;;1.05;;
28523;SDS011;15734;50.904;6.922;2023-06-26T13:57:53;3.58;;;1.23;;
28523;SDS011;15734;50.904;6.922;2023-06-26T14:00:20;6.90;;;1.38;;
28523;SDS011;15734;50.904;6.922;2023-06-26T14:02:47;8.65;;;1.38;;
28523;SDS011;15734;50.904;6.922;2023-06-26T14:05:13;2.67;;;1.10;;
28523;SDS011;15734;50.904;6.922;2023-06-26T14:07:38;2.78;;;0.98;;
28523;SDS011;15734;50.904;6.922;2023-06-26T14:10:04;9.77;;;1.67;;
28523;SDS011;15734;50.904;6.922;2023-06-26T14:12:31;8.40;;;1.10;;
28523;SDS011;15734;50.904;6.922;2023-06-26T14:14:56;7.63;;;1.30;;
28523;SDS011;15734;50.904;6.922;2023-06-26T14:17:22;5.90;;;1.10;;
28523;SDS011;15734;50.904;6.922;2023-06-26T14:19:50;2.22;;;1.13;;
28523;SDS011;15734;50.904;6.922;2023-06-26T14:22:17;4.00;;;1.10;;
28523;SDS011;15734;50.904;6.922;2023-06-26T14:24:43;11.27;;;1.42;;
28523;SDS011;15734;50.904;6.922;2023-06-26T14:27:08;1.88;;;0.80;;
28523;SDS011;15734;50.904;6.922;2023-06-26T14:29:35;4.55;;;1.08;;
28523;SDS011;15734;50.904;6.922;2023-06-26T14:32:01;4.13;;;0.95;;
28523;SDS011;15734;50.904;6.922;2023-06-26T14:34:26;5.97;;;1.40;;
28523;SDS011;15734;50.904;6.922;2023-06-26T14:36:52;3.95;;;0.88;;
28523;SDS011;15734;50.904;6.922;2023-06-26T14:39:17;9.85;;;1.10;;
28523;SDS011;15734;50.904;6.922;2023-06-26T14:41:43;3.58;;;1.27;;
28523;SDS011;15734;50.904;6.922;2023-06-26T14:44:08;4.65;;;1.20;;
28523;SDS011;15734;50.904;6.922;2023-06-26T14:46:36;4.10;;;1.35;;
28523;SDS011;15734;50.904;6.922;2023-06-26T14:49:02;8.00;;;1.88;;
28523;SDS011;15734;50.904;6.922;2023-06-26T14:51:28;7.90;;;1.20;;
28523;SDS011;15734;50.904;6.922;2023-06-26T14:53:53;2.53;;;1.00;;
28523;SDS011;15734;50.904;6.922;2023-06-26T14:56:19;6.10;;;1.63;;
28523;SDS011;15734;50.904;6.922;2023-06-26T14:58:45;3.88;;;1.20;;